Time;durP1;ratioP1;P1;durP2;ratioP2;P2;SDS_P1;SDS_P2;PMS_P1;PMS_P2;Temp;Humidity;BMP_temperature;BMP_pressure;BME280_temperature;BME280_humidity;BME280_pressure;Samples;Min_cycle;Max_cycle;Signal;HPM_P1;HPM_P2
2022/11/28 00:02:01;;;;;;;25.13;13.40;;;;;;;15.77;55.42;100970.41;5044997;28;20087;-68
2022/11/28 00:04:27;;;;;;;23.00;13.17;;;;;;;15.71;55.45;100960.03;5047625;28;20024;-68
2022/11/28 00:06:53;;;;;;;25.33;14.27;;;;;;;16.63;52.96;100955.47;5050685;28;20020;-68
2022/11/28 00:09:19;;;;;;;26.33;14.73;;;;;;;16.41;53.97;100956.16;5050072;28;20116;-68
2022/11/28 00:11:47;;;;;;;26.63;14.50;;;;;;;17.08;51.70;100957.47;5047061;28;20083;-68
2022/11/28 00:14:13;;;;;;;23.17;14.80;;;;;;;16.07;55.10;100957.25;5047893;28;20029;-68
2022/11/28 00:16:38;;;;;;;25.17;14.20;;;;;;;15.89;55.27;100947.25;5053480;28;20103;-68
2022/11/28 00:19:05;;;;;;;25.50;16.07;;;;;;;16.22;55.06;100939.22;5048558;28;20129;-68
2022/11/28 00:21:31;;;;;;;27.97;16.03;;;;;;;15.84;55.94;100942.13;5046943;28;20139;-68
2022/11/28 00:23:57;;;;;;;35.47;15.63;;;;;;;16.20;54.90;100941.06;5049896;28;20562;-68
2022/11/28 00:26:26;;;;;;;26.67;15.73;;;;;;;15.92;55.62;100941.88;5050301;28;20108;-68
2022/11/28 00:28:51;;;;;;;24.50;14.93;;;;;;;15.81;56.46;100947.47;5048369;28;20028;-68
2022/11/28 00:31:23;;;;;;;22.43;15.93;;;;;;;15.49;57.39;100948.41;5046726;28;20036;-68
2022/11/28 00:33:49;;;;;;;26.83;16.23;;;;;;;16.49;54.21;100936.59;5049164;28;20035;-68
2022/11/28 00:36:14;;;;;;;27.00;16.20;;;;;;;16.38;54.23;100939.59;5051372;28;20017;-68
2022/11/28 00:38:40;;;;;;;28.03;15.33;;;;;;;16.07;56.01;100938.81;5048469;28;20071;-68
2022/11/28 00:41:14;;;;;;;24.87;16.23;;;;;;;16.58;55.16;100936.28;5048960;28;20394;-69
2022/11/28 00:43:42;;;;;;;25.50;15.97;;;;;;;16.81;53.75;100937.28;5048023;28;20039;-68
2022/11/28 00:46:08;;;;;;;30.13;16.57;;;;;;;16.29;56.12;100924.91;5048126;28;20436;-68
2022/11/28 00:48:35;;;;;;;29.57;16.60;;;;;;;16.87;53.07;100922.09;5049682;28;20382;-68
2022/11/28 00:51:09;;;;;;;22.20;15.57;;;;;;;16.52;54.08;100925.94;5047438;28;20436;-68
2022/11/28 00:53:35;;;;;;;23.60;16.03;;;;;;;16.61;55.14;100923.00;5079283;28;20037;-68
2022/11/28 00:56:05;;;;;;;23.37;15.23;;;;;;;16.03;57.25;100926.63;5050105;28;20025;-68
2022/11/28 00:58:32;;;;;;;21.80;15.00;;;;;;;16.43;55.45;100927.97;5052864;28;20057;-68
2022/11/28 01:00:57;;;;;;;20.23;14.30;;;;;;;15.65;57.83;100918.06;5048520;28;20103;-68
2022/11/28 01:03:23;;;;;;;21.50;13.93;;;;;;;16.58;55.92;100910.78;5049192;28;20119;-68
2022/11/28 01:05:48;;;;;;;19.10;12.63;;;;;;;16.23;56.08;100917.22;5047233;28;20431;-68
2022/11/28 01:08:13;;;;;;;19.30;13.37;;;;;;;16.55;55.94;100915.28;5048320;28;20032;-68
2022/11/28 01:10:41;;;;;;;19.23;13.03;;;;;;;16.58;55.31;100909.88;5049275;28;20071;-68
2022/11/28 01:13:08;;;;;;;21.33;13.23;;;;;;;16.53;55.94;100907.41;5049140;28;20033;-68
2022/11/28 01:15:34;;;;;;;22.80;13.27;;;;;;;15.91;58.30;100911.19;5048045;28;20028;-69
2022/11/28 01:18:00;;;;;;;19.60;12.63;;;;;;;16.44;56.52;100910.34;5048955;28;20509;-68
2022/11/28 01:20:25;;;;;;;18.43;13.13;;;;;;;16.44;55.77;100910.34;5082095;28;20402;-68
2022/11/28 01:22:50;;;;;;;17.20;12.67;;;;;;;16.81;56.22;100905.63;5046509;28;20031;-68
2022/11/28 01:25:16;;;;;;;17.60;12.60;;;;;;;16.26;57.81;100903.91;5048559;28;20135;-68
2022/11/28 01:27:41;;;;;;;20.13;12.10;;;;;;;16.90;53.83;100895.63;5047342;28;20441;-68
2022/11/28 01:30:07;;;;;;;19.50;12.30;;;;;;;16.23;56.98;100899.59;5049666;28;20032;-68
2022/11/28 01:32:32;;;;;;;18.20;12.00;;;;;;;16.14;56.86;100894.63;5048124;28;20143;-68
2022/11/28 01:34:58;;;;;;;16.83;12.27;;;;;;;17.39;54.18;100895.63;5046705;28;20032;-68
2022/11/28 01:37:23;;;;;;;25.17;12.73;;;;;;;17.52;54.74;100897.81;5046886;28;20393;-68
2022/11/28 01:39:48;;;;;;;15.13;11.63;;;;;;;17.39;53.65;100894.75;5049700;28;20108;-69
2022/11/28 01:42:18;;;;;;;15.63;10.93;;;;;;;16.39;55.59;100902.59;5080110;28;20021;-69
2022/11/28 01:44:46;;;;;;;16.23;11.20;;;;;;;17.03;55.10;100911.88;5051070;28;20029;-68
2022/11/28 01:47:14;;;;;;;15.53;10.47;;;;;;;16.55;56.27;100915.28;5050299;28;20044;-68
2022/11/28 01:49:40;;;;;;;12.40;9.70;;;;;;;17.03;54.98;100906.59;5051973;28;20029;-68
2022/11/28 01:52:14;;;;;;;11.43;9.00;;;;;;;17.40;53.62;100905.25;5052060;28;20053;-68
2022/11/28 01:54:42;;;;;;;12.47;9.03;;;;;;;17.16;54.98;100906.16;5051470;28;20111;-69
2022/11/28 01:57:15;;;;;;;12.93;9.00;;;;;;;17.09;54.68;100897.59;5050273;28;20139;-69
2022/11/28 01:59:45;;;;;;;;;;;;;;;17.42;54.02;100884.94;5054983;28;20032;-68
2022/11/28 02:02:19;;;;;;;11.90;8.13;;;;;;;16.70;56.42;100883.09;5051804;28;20052;-68
2022/11/28 02:04:45;;;;;;;10.33;7.73;;;;;;;17.28;54.42;100889.84;5052887;28;20025;-68
2022/11/28 02:07:11;;;;;;;9.57;7.83;;;;;;;16.64;57.38;100885.94;5050666;28;20466;-68
2022/11/28 02:09:37;;;;;;;9.67;7.90;;;;;;;17.03;55.00;100882.84;5050855;28;20075;-68
2022/11/28 02:12:16;;;;;;;9.73;8.20;;;;;;;17.67;52.89;100885.75;5053420;28;20390;-68
2022/11/28 02:15:00;;;;;;;10.07;8.03;;;;;;;16.30;57.80;100887.06;5049864;28;20021;-68
2022/11/28 02:17:25;;;;;;;12.07;7.80;;;;;;;16.71;56.35;100889.25;5065471;28;20025;-69
2022/11/28 02:20:16;;;;;;;9.90;8.27;;;;;;;17.68;53.21;100883.09;5053674;28;20478;-68
2022/11/28 02:23:39;;;;;;;9.83;8.47;;;;;;;17.15;55.73;100893.88;5078141;28;20067;-68
2022/11/28 02:26:23;;;;;;;9.43;7.83;;;;;;;17.84;53.48;100893.91;4992659;28;20120;-68
2022/11/28 02:29:06;;;;;;;9.93;7.97;;;;;;;16.98;55.85;100890.09;5006447;28;20084;-69
2022/11/28 02:31:50;;;;;;;;;;;;;;;17.63;53.76;100877.09;5026911;28;20052;-68
2022/11/28 02:34:41;;;;;;;11.07;8.37;;;;;;;16.30;58.25;100889.72;5051860;28;19924;-68
2022/11/28 02:37:13;;;;;;;12.43;8.97;;;;;;;16.89;56.67;100893.88;5054192;28;20027;-68
2022/11/28 02:39:44;;;;;;;11.95;9.90;;;;;;;16.48;58.42;100892.66;5083941;28;20116;-68
2022/11/28 02:42:21;;;;;;;9.90;8.67;;;;;;;16.77;57.51;100884.63;5084199;28;20497;-68
2022/11/28 02:44:59;;;;;;;11.43;9.00;;;;;;;17.01;57.21;100889.09;5049238;28;20506;-68
2022/11/28 02:47:35;;;;;;;11.67;9.77;;;;;;;16.74;58.80;100887.34;5039785;28;20055;-68
2022/11/28 02:50:06;;;;;;;13.23;9.67;;;;;;;16.66;57.39;100892.03;5053224;28;20025;-68
2022/11/28 02:52:38;;;;;;;13.53;10.17;;;;;;;16.03;61.26;100883.56;5049173;28;20489;-68
2022/11/28 02:55:04;;;;;;;14.73;10.43;;;;;;;15.53;62.53;100878.91;5049281;28;20025;-68
2022/11/28 02:57:35;;;;;;;11.70;9.90;;;;;;;16.04;59.56;100878.22;5050414;28;20052;-68
2022/11/28 03:00:01;;;;;;;15.70;10.27;;;;;;;16.78;58.86;100874.91;5050400;28;20115;-68
2022/11/28 03:02:31;;;;;;;14.23;11.37;;;;;;;16.82;57.25;100876.53;5049150;28;20140;-68
2022/11/28 03:05:07;;;;;;;14.87;11.23;;;;;;;16.37;58.65;100885.94;5035724;28;20123;-68
2022/11/28 03:07:38;;;;;;;19.13;12.17;;;;;;;16.14;60.61;100876.16;5048848;28;20028;-68
2022/11/28 03:10:29;;;;;;;14.43;11.07;;;;;;;16.28;60.63;100881.00;5051517;28;20027;-68
2022/11/28 03:13:30;;;;;;;14.97;11.57;;;;;;;16.54;59.04;100877.50;5048179;28;20036;-68
2022/11/28 03:16:02;;;;;;;15.23;11.80;;;;;;;16.47;58.81;100885.66;5049925;28;20130;-68
2022/11/28 03:18:36;;;;;;;16.35;12.35;;;;;;;16.57;56.61;100887.09;5050125;28;20029;-68
2022/11/28 03:21:22;;;;;;;16.20;12.83;;;;;;;16.88;56.87;100880.72;5050310;28;20031;-68
2022/11/28 03:23:54;;;;;;;22.77;12.43;;;;;;;16.85;57.08;100872.91;5049997;28;20040;-68
2022/11/28 03:26:35;;;;;;;16.27;12.52;;;;;;;17.17;54.96;100878.84;5051708;28;20044;-68
2022/11/28 03:29:04;;;;;;;18.20;13.07;;;;;;;15.95;59.26;100881.19;5046683;28;20365;-68
2022/11/28 03:31:36;;;;;;;16.13;12.53;;;;;;;16.34;56.94;100885.22;5048615;28;20028;-68
2022/11/28 03:34:05;;;;;;;23.33;13.30;;;;;;;16.48;58.55;100884.75;5049584;28;20039;-68
2022/11/28 03:36:36;;;;;;;19.97;13.57;;;;;;;16.15;59.92;100885.81;5053328;28;20386;-68
2022/11/28 03:39:08;;;;;;;19.20;13.00;;;;;;;16.25;58.98;100892.53;5050142;28;20029;-68
2022/11/28 03:41:52;;;;;;;17.45;13.05;;;;;;;15.30;61.42;100890.13;5081024;28;20106;-68
2022/11/28 03:44:25;;;;;;;17.43;13.07;;;;;;;15.87;61.30;100884.06;5048854;28;20028;-68
2022/11/28 03:46:55;;;;;;;18.60;13.60;;;;;;;16.90;57.35;100885.06;5051206;28;20037;-68
2022/11/28 03:49:30;;;;;;;19.27;14.10;;;;;;;16.11;59.18;100878.91;5050365;28;20482;-68
2022/11/28 03:52:06;;;;;;;19.27;13.60;;;;;;;15.78;60.66;100887.81;5049218;28;20043;-68
2022/11/28 03:54:38;;;;;;;19.13;13.07;;;;;;;16.11;59.79;100879.78;5048944;28;20071;-68
2022/11/28 03:57:39;;;;;;;22.80;13.85;;;;;;;15.57;60.26;100877.91;5049661;28;20037;-68
2022/11/28 04:00:09;;;;;;;22.60;14.27;;;;;;;16.86;56.00;100872.00;5051468;28;20524;-68
2022/11/28 04:03:03;;;;;;;24.30;15.47;;;;;;;16.23;57.34;100880.28;5032730;28;20049;-68
2022/11/28 04:05:43;;;;;;;23.00;14.47;;;;;;;16.29;57.89;100882.72;5017500;28;20161;-68
2022/11/28 04:08:25;;;;;;;22.90;14.90;;;;;;;15.76;58.80;100884.34;5049582;28;20032;-67
2022/11/28 04:11:00;;;;;;;19.92;13.85;;;;;;;16.34;58.08;100880.78;5047147;28;20113;-67
2022/11/28 04:13:40;;;;;;;25.60;15.37;;;;;;;17.00;55.51;100884.75;5048951;28;20136;-67
2022/11/28 04:16:19;;;;;;;23.17;14.83;;;;;;;16.50;57.54;100886.44;5059292;28;20029;-68
2022/11/28 04:18:58;;;;;;;26.53;15.73;;;;;;;17.03;55.43;100882.84;5049063;28;20037;-68
2022/11/28 04:21:32;;;;;;;26.33;15.23;;;;;;;17.35;53.70;100887.84;5051262;28;20067;-68
2022/11/28 04:24:03;;;;;;;24.80;14.57;;;;;;;17.21;53.95;100888.38;5045468;28;20051;-68
2022/11/28 04:26:43;;;;;;;27.80;15.30;;;;;;;15.42;59.32;100890.63;5049022;28;20041;-68
2022/11/28 04:29:12;;;;;;;22.20;14.30;;;;;;;15.92;58.57;100883.91;5050045;28;20036;-68
2022/11/28 04:31:41;;;;;;;26.97;16.33;;;;;;;15.86;60.53;100890.22;5047833;28;20127;-68
2022/11/28 04:34:09;;;;;;;26.30;15.90;;;;;;;16.34;57.89;100890.50;5050886;28;20043;-67
2022/11/28 04:36:38;;;;;;;25.27;15.73;;;;;;;16.46;56.77;100900.63;5048533;28;20135;-68
2022/11/28 04:39:08;;;;;;;27.43;15.50;;;;;;;16.42;58.06;100894.59;5046484;28;20060;-67
2022/11/28 04:41:38;;;;;;;28.23;16.27;;;;;;;15.26;61.99;100905.13;5052011;28;20179;-68
2022/11/28 04:44:21;;;;;;;28.23;16.10;;;;;;;15.83;59.10;100900.03;5034817;28;20021;-68
2022/11/28 04:46:51;;;;;;;27.73;16.13;;;;;;;16.28;58.08;100896.84;5074995;28;20494;-68
2022/11/28 04:49:17;;;;;;;28.23;16.27;;;;;;;17.30;54.85;100906.53;5046294;28;20033;-67
2022/11/28 04:52:01;;;;;;;25.13;14.80;;;;;;;17.12;54.97;100906.28;5046978;28;20497;-68
2022/11/28 04:54:54;;;;;;;27.87;16.30;;;;;;;17.03;55.00;100897.81;5048903;28;20028;-67
2022/11/28 04:57:35;;;;;;;27.30;16.07;;;;;;;17.08;55.64;100899.38;5048142;28;20050;-68
2022/11/28 05:00:14;;;;;;;26.90;15.93;;;;;;;15.38;60.92;100904.78;5049985;28;20066;-68
2022/11/28 05:02:42;;;;;;;26.77;16.50;;;;;;;16.10;59.01;100907.06;5041846;28;20513;-68
2022/11/28 05:05:17;;;;;;;27.40;16.13;;;;;;;15.72;59.16;100902.94;5044738;28;20054;-68
2022/11/28 05:07:43;;;;;;;28.77;16.60;;;;;;;16.18;58.25;100900.66;5048648;28;20033;-68
2022/11/28 05:10:10;;;;;;;34.37;16.43;;;;;;;15.09;62.04;100911.75;5049863;28;20024;-68
2022/11/28 05:12:36;;;;;;;28.60;16.23;;;;;;;16.65;57.26;100908.78;5047103;28;20500;-68
2022/11/28 05:15:01;;;;;;;27.40;17.40;;;;;;;15.95;58.55;100915.47;5047205;28;20139;-68
2022/11/28 05:17:27;;;;;;;32.10;17.60;;;;;;;16.81;56.05;100918.81;5046363;28;20486;-68
2022/11/28 05:19:52;;;;;;;32.13;18.10;;;;;;;16.21;57.67;100921.66;5051768;28;20040;-68
2022/11/28 05:22:17;;;;;;;32.93;17.43;;;;;;;16.84;55.75;100926.63;5087575;28;20108;-68
2022/11/28 05:24:43;;;;;;;33.70;18.37;;;;;;;16.43;57.23;100930.63;5055266;28;20036;-68
2022/11/28 05:27:10;;;;;;;35.27;18.33;;;;;;;15.69;60.15;100930.25;5087949;28;20175;-68
2022/11/28 05:29:36;;;;;;;33.43;17.47;;;;;;;17.08;55.35;100931.06;5053480;28;20515;-68
2022/11/28 05:32:01;;;;;;;35.47;18.87;;;;;;;16.06;57.23;100939.69;5051997;28;20037;-68
2022/11/28 05:34:28;;;;;;;32.77;18.30;;;;;;;17.06;54.50;100932.03;5056355;28;20039;-68
2022/11/28 05:36:54;;;;;;;34.93;18.80;;;;;;;16.43;56.60;100933.25;5059337;28;20079;-68
2022/11/28 05:39:19;;;;;;;34.40;18.00;;;;;;;17.01;54.45;100937.50;5055724;28;20025;-68
2022/11/28 05:41:44;;;;;;;36.33;18.47;;;;;;;16.69;55.62;100939.44;5052505;28;20104;-68
2022/11/28 05:44:10;;;;;;;34.93;18.30;;;;;;;16.18;58.72;100943.72;5087987;28;20082;-68
2022/11/28 05:46:35;;;;;;;36.77;19.47;;;;;;;16.76;55.71;100945.34;5054232;28;20028;-68
2022/11/28 05:49:01;;;;;;;34.17;19.13;;;;;;;16.74;55.69;100937.47;5053824;28;20524;-68
2022/11/28 05:51:26;;;;;;;35.30;18.93;;;;;;;16.47;56.41;100944.53;5053546;28;20044;-68
2022/11/28 05:53:52;;;;;;;38.13;18.33;;;;;;;16.39;57.54;100936.91;5055344;28;20024;-68
2022/11/28 05:56:19;;;;;;;37.33;19.30;;;;;;;16.82;56.47;100946.94;5054436;28;20111;-68
2022/11/28 05:58:45;;;;;;;41.80;18.43;;;;;;;17.61;52.82;100939.72;5053660;28;20082;-68
2022/11/28 06:01:12;;;;;;;36.30;18.60;;;;;;;17.00;54.48;100935.75;5055720;28;20040;-68
2022/11/28 06:03:38;;;;;;;36.20;18.60;;;;;;;17.27;53.29;100935.72;5057212;28;20116;-68
2022/11/28 06:06:09;;;;;;;40.43;18.60;;;;;;;16.48;56.45;100929.59;5054179;28;20548;-68
2022/11/28 06:08:35;;;;;;;38.17;19.17;;;;;;;17.77;52.86;100927.63;5055187;28;20060;-69
2022/11/28 06:11:00;;;;;;;41.77;19.83;;;;;;;18.27;50.73;100918.66;5057420;28;20524;-68
2022/11/28 06:13:26;;;;;;;41.53;18.90;;;;;;;17.80;51.36;100922.25;5054883;28;20029;-68
2022/11/28 06:15:52;;;;;;;41.43;19.30;;;;;;;16.41;56.07;100934.22;5054135;28;20060;-69
2022/11/28 06:18:17;;;;;;;50.67;20.10;;;;;;;17.26;54.45;100936.63;5054349;28;20028;-68
2022/11/28 06:20:43;;;;;;;48.90;20.70;;;;;;;17.79;52.90;100932.88;5058600;28;20478;-68
2022/11/28 06:23:08;;;;;;;48.03;20.77;;;;;;;17.39;54.04;100951.09;5054138;28;20033;-68
2022/11/28 06:25:33;;;;;;;46.60;21.13;;;;;;;17.59;53.48;100944.22;5053494;28;20031;-68
2022/11/28 06:27:59;;;;;;;52.47;21.90;;;;;;;17.93;51.77;100935.03;5055556;28;20020;-68
2022/11/28 06:30:24;;;;;;;56.50;22.13;;;;;;;17.41;55.09;100938.69;5084961;28;20412;-68
2022/11/28 06:32:49;;;;;;;62.93;22.70;;;;;;;17.32;53.45;100948.72;5053349;28;20051;-69
2022/11/28 06:35:15;;;;;;;57.13;20.53;;;;;;;16.99;55.34;100951.66;5052907;28;20040;-68
2022/11/28 06:37:40;;;;;;;57.17;22.57;;;;;;;16.73;56.20;100943.69;5048355;28;20037;-68
2022/11/28 06:40:06;;;;;;;54.77;21.77;;;;;;;17.59;52.85;100952.16;5050245;28;20521;-68
2022/11/28 06:42:35;;;;;;;60.83;22.63;;;;;;;17.66;52.61;100961.56;5053460;28;20486;-68
2022/11/28 06:45:01;;;;;;;62.73;22.90;;;;;;;17.32;53.63;100954.88;5051320;28;20020;-68
2022/11/28 06:47:26;;;;;;;55.83;22.70;;;;;;;17.21;55.31;100959.69;5051169;28;20064;-68
2022/11/28 06:49:51;;;;;;;61.20;22.50;;;;;;;17.46;53.70;100964.94;5052126;28;20059;-68
2022/11/28 06:52:17;;;;;;;64.67;24.20;;;;;;;17.51;53.24;100963.00;5051833;28;20029;-68
2022/11/28 06:54:43;;;;;;;58.17;23.37;;;;;;;17.28;54.32;100963.81;5052032;28;20076;-68
2022/11/28 06:57:09;;;;;;;55.93;23.47;;;;;;;17.62;52.99;100963.44;5050896;28;20021;-69
2022/11/28 06:59:34;;;;;;;62.53;25.07;;;;;;;16.88;55.93;100971.31;5048973;28;20028;-68
2022/11/28 07:02:01;;;;;;;60.60;23.97;;;;;;;16.96;55.01;100968.47;5046441;28;20029;-68
2022/11/28 07:04:27;;;;;;;58.87;23.80;;;;;;;16.16;57.48;100976.34;5051293;28;20033;-68
2022/11/28 07:06:52;;;;;;;58.27;24.50;;;;;;;17.71;54.20;100971.94;5048875;28;20541;-68
2022/11/28 07:09:17;;;;;;;62.73;26.33;;;;;;;17.40;55.02;100978.38;5085045;28;20386;-68
2022/11/28 07:11:43;;;;;;;69.67;25.70;;;;;;;17.31;55.33;100979.59;5050713;28;20021;-68
2022/11/28 07:14:09;;;;;;;63.93;24.03;;;;;;;17.08;56.64;100983.88;5049770;28;20520;-68
2022/11/28 07:16:35;;;;;;;68.77;25.13;;;;;;;17.31;55.71;100979.59;5051606;28;20025;-68
2022/11/28 07:19:01;;;;;;;72.13;25.83;;;;;;;17.47;54.25;100985.16;5049752;28;20028;-68
2022/11/28 07:21:27;;;;;;;76.57;26.63;;;;;;;17.63;54.24;100985.47;5048143;28;20029;-68
2022/11/28 07:23:52;;;;;;;71.53;25.50;;;;;;;17.32;55.00;100986.56;5049596;28;20024;-67
2022/11/28 07:26:20;;;;;;;68.90;24.70;;;;;;;18.09;52.32;100972.28;5049096;28;20083;-67
2022/11/28 07:28:47;;;;;;;85.13;26.77;;;;;;;18.24;51.55;100974.31;5082270;28;20120;-68
2022/11/28 07:31:18;;;;;;;94.93;27.97;;;;;;;18.30;51.81;100978.53;5049972;28;20537;-68
2022/11/28 07:33:48;;;;;;;82.07;26.00;;;;;;;18.02;51.82;100984.91;5041361;28;20562;-68
2022/11/28 07:36:17;;;;;;;77.63;25.97;;;;;;;18.02;52.25;100982.25;5047511;28;20067;-68
2022/11/28 07:38:47;;;;;;;81.57;27.07;;;;;;;17.31;53.93;100995.44;5054491;28;20127;-68
2022/11/28 07:41:13;;;;;;;89.27;26.20;;;;;;;18.13;52.54;100992.41;5049895;28;20028;-67
2022/11/28 07:43:41;;;;;;;69.37;26.27;;;;;;;18.05;52.54;100992.72;5049673;28;20389;-68
2022/11/28 07:46:09;;;;;;;76.80;25.93;;;;;;;17.86;53.07;100999.59;5049864;28;20024;-68
2022/11/28 07:48:35;;;;;;;84.53;25.97;;;;;;;17.51;53.71;101001.78;5035980;28;20024;-68
2022/11/28 07:51:11;;;;;;;80.37;26.40;;;;;;;18.37;51.84;101003.81;5048602;28;20025;-68
2022/11/28 07:53:37;;;;;;;75.93;26.07;;;;;;;17.26;54.59;101010.56;5049672;28;20045;-68
2022/11/28 07:56:15;;;;;;;83.60;25.67;;;;;;;18.38;51.14;101000.25;5047735;28;20032;-69
2022/11/28 07:58:43;;;;;;;97.03;27.73;;;;;;;17.93;52.01;101003.78;5050059;28;20055;-69
2022/11/28 08:01:11;;;;;;;83.93;27.60;;;;;;;17.59;53.59;101012.94;5043345;28;20028;-69
2022/11/28 08:03:37;;;;;;;88.73;26.43;;;;;;;17.88;53.41;101011.00;5051193;28;20037;-69
2022/11/28 08:06:03;;;;;;;102.33;27.40;;;;;;;17.12;54.82;101021.63;5050230;28;20020;-68
2022/11/28 08:08:29;;;;;;;107.50;27.50;;;;;;;17.51;53.70;101018.47;5049154;28;20027;-69
2022/11/28 08:11:00;;;;;;;113.67;28.50;;;;;;;17.42;54.41;101019.69;5048786;28;20049;-69
2022/11/28 08:13:26;;;;;;;104.40;29.17;;;;;;;16.44;57.92;101029.97;5048495;28;20544;-69
2022/11/28 08:15:52;;;;;;;96.40;28.17;;;;;;;17.77;53.77;101017.53;5049439;28;20025;-69
2022/11/28 08:18:17;;;;;;;112.17;28.20;;;;;;;17.94;52.80;101031.94;5050390;28;20021;-68
2022/11/28 08:20:43;;;;;;;106.13;28.00;;;;;;;18.28;52.40;101026.19;5050058;28;20024;-70
2022/11/28 08:23:09;;;;;;;119.13;28.23;;;;;;;17.91;53.46;101030.25;5048120;28;20048;-69
2022/11/28 08:25:35;;;;;;;117.60;29.50;;;;;;;17.87;53.98;101038.34;5046379;28;20056;-67
2022/11/28 08:28:00;;;;;;;132.17;31.47;;;;;;;17.62;54.01;101031.31;5049723;28;20029;-67
2022/11/28 08:30:25;;;;;;;103.47;28.53;;;;;;;17.04;55.45;101021.03;5048778;28;20032;-67
2022/11/28 08:32:51;;;;;;;112.60;30.23;;;;;;;17.99;53.43;101019.41;5049089;28;20033;-68
2022/11/28 08:35:18;;;;;;;118.77;31.13;;;;;;;17.71;53.45;101014.25;5048114;28;20433;-68
2022/11/28 08:37:43;;;;;;;132.70;29.37;;;;;;;18.30;52.02;101012.94;5047713;28;20398;-70
2022/11/28 08:40:08;;;;;;;140.70;30.63;;;;;;;18.42;52.13;101007.16;5048227;28;20056;-70
2022/11/28 08:42:34;;;;;;;153.33;33.60;;;;;;;18.40;51.34;101008.97;5048674;28;20017;-70
2022/11/28 08:44:59;;;;;;;132.97;31.57;;;;;;;17.40;53.98;101021.50;5047475;28;20028;-70
2022/11/28 08:47:25;;;;;;;122.10;31.27;;;;;;;17.59;55.57;101020.84;5048207;28;20486;-70
2022/11/28 08:49:50;;;;;;;118.43;30.53;;;;;;;18.29;52.64;101016.50;5050457;28;20398;-70
2022/11/28 08:52:16;;;;;;;110.13;30.07;;;;;;;18.42;51.87;101024.81;5049629;28;20031;-70
2022/11/28 08:54:42;;;;;;;100.83;30.67;;;;;;;17.68;54.83;101036.38;5045574;28;20535;-70
2022/11/28 08:57:07;;;;;;;107.93;29.77;;;;;;;18.24;53.01;101029.03;5049080;28;20396;-70
2022/11/28 08:59:33;;;;;;;109.23;30.07;;;;;;;18.57;52.34;101028.63;5048774;28;20544;-70
2022/11/28 09:01:58;;;;;;;122.80;32.63;;;;;;;18.72;51.48;101025.34;5050094;28;20124;-70
2022/11/28 09:04:24;;;;;;;106.00;27.90;;;;;;;18.67;52.05;101014.09;5049567;28;20043;-70
2022/11/28 09:06:49;;;;;;;96.90;28.87;;;;;;;18.76;51.34;101021.63;5045804;28;20028;-70
2022/11/28 09:09:15;;;;;;;98.63;29.33;;;;;;;18.68;52.12;101028.19;5046384;28;20104;-70
2022/11/28 09:11:41;;;;;;;103.10;28.93;;;;;;;19.45;49.30;101028.47;5051948;28;20024;-71
2022/11/28 09:14:07;;;;;;;95.10;29.13;;;;;;;19.14;50.45;101021.84;5054764;28;20040;-69
2022/11/28 09:16:32;;;;;;;90.83;29.83;;;;;;;18.64;52.03;101033.63;5048365;28;20040;-69
2022/11/28 09:18:58;;;;;;;84.30;29.30;;;;;;;18.59;51.94;101029.44;5050706;28;20029;-67
2022/11/28 09:21:24;;;;;;;88.73;27.80;;;;;;;19.06;51.27;101028.41;5060108;28;21390;-67
2022/11/28 09:23:49;;;;;;;80.80;28.30;;;;;;;19.56;50.13;101027.13;5045613;28;20394;-69
2022/11/28 09:26:19;;;;;;;84.07;29.00;;;;;;;19.67;49.65;101035.47;5045794;28;20037;-69
2022/11/28 09:28:45;;;;;;;79.83;28.00;;;;;;;19.43;50.47;101032.13;5050034;28;20032;-67
2022/11/28 09:31:11;;;;;;;64.00;25.77;;;;;;;18.70;52.28;101042.22;5046345;28;20029;-67
2022/11/28 09:33:37;;;;;;;67.40;26.73;;;;;;;17.94;54.79;101045.16;5043556;28;20545;-67
2022/11/28 09:36:07;;;;;;;63.10;24.67;;;;;;;19.00;51.68;101037.50;5046752;28;20095;-68
2022/11/28 09:38:33;;;;;;;74.63;25.53;;;;;;;19.41;50.75;101034.84;5048551;28;20033;-67
2022/11/28 09:41:00;;;;;;;59.27;22.67;;;;;;;18.87;52.33;101030.94;5045269;28;20286;-68
2022/11/28 09:43:30;;;;;;;63.67;23.00;;;;;;;18.90;52.04;101033.50;5047700;28;20037;-67
2022/11/28 09:45:57;;;;;;;67.23;23.83;;;;;;;19.33;51.45;101037.81;5046241;28;20542;-67
2022/11/28 09:48:43;;;;;;;60.53;23.50;;;;;;;18.62;53.28;101042.53;5043242;28;20617;-67
2022/11/28 09:51:27;;;;;;;62.50;24.37;;;;;;;19.45;51.44;101040.84;5058079;28;20058;-67
2022/11/28 09:54:24;;;;;;;51.80;22.03;;;;;;;19.07;52.25;101046.91;5073229;28;20115;-67
2022/11/28 09:56:50;;;;;;;56.20;22.23;;;;;;;18.21;54.86;101056.47;5043089;28;20094;-67
2022/11/28 09:59:27;;;;;;;58.43;21.57;;;;;;;19.14;52.24;101053.66;5043557;28;20505;-67
2022/11/28 10:02:20;;;;;;;58.90;23.10;;;;;;;19.46;51.81;101054.03;5044871;28;20029;-67
2022/11/28 10:05:00;;;;;;;52.70;22.02;;;;;;;19.48;51.33;101052.19;5038643;28;20430;-67
2022/11/28 10:08:01;;;;;;;54.10;22.03;;;;;;;18.33;54.51;101065.72;5050576;28;20159;-67
2022/11/28 10:10:40;;;;;;;56.50;22.57;;;;;;;19.11;52.86;101059.09;5034241;28;20033;-67
2022/11/28 10:13:30;;;;;;;54.50;23.33;;;;;;;19.34;51.64;101054.56;5051095;28;20029;-67
2022/11/28 10:16:15;;;;;;;56.47;23.57;;;;;;;19.25;51.61;101050.53;5049909;28;20057;-67
2022/11/28 10:18:55;;;;;;;59.47;22.90;;;;;;;19.13;52.60;101051.06;5061939;28;20041;-67
2022/11/28 10:21:43;;;;;;;53.20;21.87;;;;;;;18.89;52.54;101058.25;5045144;28;20029;-67
2022/11/28 10:24:16;;;;;;;53.87;22.80;;;;;;;17.75;56.87;101066.97;5051099;28;20468;-67
2022/11/28 10:26:47;;;;;;;54.10;23.73;;;;;;;19.42;52.11;101057.75;5049854;28;20082;-69
2022/11/28 10:29:25;;;;;;;57.77;23.90;;;;;;;19.31;52.36;101054.72;5051547;28;20029;-69
2022/11/28 10:31:56;;;;;;;56.87;24.27;;;;;;;19.01;53.12;101047.13;5044896;28;20017;-69
2022/11/28 10:34:29;;;;;;;58.77;23.37;;;;;;;19.10;53.16;101057.34;5047875;28;20036;-67
2022/11/28 10:37:11;;;;;;;54.93;22.97;;;;;;;19.46;53.27;101067.28;5047503;28;20118;-67
2022/11/28 10:39:42;;;;;;;49.05;22.02;;;;;;;19.26;52.80;101067.28;5045919;28;20071;-67
2022/11/28 10:42:31;;;;;;;50.83;22.90;;;;;;;18.58;54.90;101064.75;5048483;28;20032;-67
2022/11/28 10:45:37;;;;;;;53.10;22.53;;;;;;;18.60;54.35;101079.66;5044495;28;20104;-67
2022/11/28 10:48:18;;;;;;;52.80;23.77;;;;;;;19.80;51.85;101068.50;5058869;28;20043;-67
2022/11/28 10:50:58;;;;;;;56.53;25.47;;;;;;;18.70;55.47;101073.97;5048090;28;20060;-67
2022/11/28 10:53:38;;;;;;;58.17;25.03;;;;;;;18.12;55.61;101086.78;5048704;28;20482;-67
2022/11/28 10:56:21;;;;;;;60.90;24.53;;;;;;;19.23;53.52;101084.19;5057942;28;20033;-67
2022/11/28 10:59:11;;;;;;;59.47;25.20;;;;;;;18.55;54.82;101097.50;5046312;28;20039;-67
2022/11/28 11:01:38;;;;;;;58.83;22.77;;;;;;;18.87;53.29;101083.91;5044000;28;20563;-67
2022/11/28 11:04:05;;;;;;;54.33;23.37;;;;;;;18.93;54.76;101081.03;5047856;28;20056;-67
2022/11/28 11:06:30;;;;;;;62.03;25.83;;;;;;;19.13;52.45;101083.72;5050340;28;20029;-67
2022/11/28 11:08:55;;;;;;;60.00;24.33;;;;;;;18.93;53.62;101075.72;5046149;28;20040;-67
2022/11/28 11:11:33;;;;;;;58.37;24.93;;;;;;;18.31;54.84;101083.44;5044728;28;20029;-67
2022/11/28 11:14:08;;;;;;;58.97;23.20;;;;;;;19.81;51.17;101080.81;5048080;28;20025;-67
2022/11/28 11:16:49;;;;;;;63.47;24.17;;;;;;;19.49;51.00;101079.56;5052117;28;20032;-67
2022/11/28 11:19:25;;;;;;;68.87;25.47;;;;;;;19.93;50.69;101078.53;5046861;28;20143;-67
2022/11/28 11:22:04;;;;;;;68.10;26.13;;;;;;;20.62;48.86;101077.97;5047567;28;20064;-66
2022/11/28 11:24:30;;;;;;;63.37;24.37;;;;;;;19.72;51.12;101078.53;5034138;28;20043;-67
2022/11/28 11:27:04;;;;;;;63.37;26.47;;;;;;;19.67;51.33;101077.88;5047426;28;20033;-67